createdAt,value
2022-12-23T00:00:43.099Z,111.77
2022-12-23T00:04:14.092Z,108.63
2022-12-23T00:07:38.871Z,106.28
2022-12-23T00:11:02.834Z,97.70
2022-12-23T00:14:38.796Z,105.13
2022-12-23T00:17:46.324Z,105.03
2022-12-23T00:21:08.913Z,105.93
2022-12-23T00:24:29.833Z,102.75
2022-12-23T00:28:01.559Z,110.47
2022-12-23T00:31:15.116Z,109.03
2022-12-23T00:34:18.156Z,116.17
2022-12-23T00:37:22.307Z,97.07
2022-12-23T00:41:05.117Z,103.80
2022-12-23T00:44:41.013Z,106.75
2022-12-23T00:48:17.925Z,99.90
2022-12-23T00:51:29.297Z,103.13
2022-12-23T00:54:38.857Z,99.10
2022-12-23T00:58:02.898Z,104.15
2022-12-23T01:01:51.008Z,93.43
2022-12-23T01:05:19.762Z,90.72
2022-12-23T01:08:28.006Z,93.97
2022-12-23T01:11:44.079Z,92.73
2022-12-23T01:15:03.951Z,92.40
2022-12-23T01:18:24.025Z,98.90
2022-12-23T01:21:41.935Z,92.32
2022-12-23T01:25:13.009Z,98.57
2022-12-23T01:28:16.803Z,85.27
2022-12-23T01:31:25.773Z,89.90
2022-12-23T01:34:37.137Z,88.45
2022-12-23T01:37:47.598Z,89.70
2022-12-23T01:41:10.926Z,87.80
2022-12-23T01:45:01.004Z,86.13
2022-12-23T01:48:05.948Z,85.25
2022-12-23T01:51:23.582Z,85.90
2022-12-23T01:54:27.226Z,85.53
2022-12-23T01:57:46.979Z,81.97
2022-12-23T02:01:29.649Z,79.60
2022-12-23T02:04:45.951Z,78.22
2022-12-23T02:08:15.427Z,76.70
2022-12-23T02:11:49.842Z,80.97
2022-12-23T02:15:35.348Z,82.93
2022-12-23T02:19:16.872Z,84.17
2022-12-23T02:22:45.404Z,82.13
2022-12-23T02:26:05.332Z,99.22
2022-12-23T02:29:40.314Z,91.63
2022-12-23T02:33:34.795Z,95.57
2022-12-23T02:36:54.466Z,95.77
2022-12-23T02:40:36.651Z,95.30
2022-12-23T02:43:51.909Z,101.55
2022-12-23T02:47:00.783Z,109.25
2022-12-23T02:50:23.565Z,104.20
2022-12-23T02:53:47.470Z,105.83
2022-12-23T02:57:11.512Z,103.40
2022-12-23T03:00:33.523Z,117.55
2022-12-23T03:03:54.595Z,107.32
2022-12-23T03:07:18.347Z,103.50
2022-12-23T03:10:53.692Z,113.73
2022-12-23T03:14:40.279Z,110.07
2022-12-23T03:18:15.094Z,114.03
2022-12-23T03:22:00.562Z,115.43
2022-12-23T03:25:47.560Z,109.03
2022-12-23T03:29:53.544Z,111.97
2022-12-23T03:33:29.288Z,116.15
2022-12-23T03:36:50.117Z,121.95
2022-12-23T03:40:08.129Z,132.38
2022-12-23T03:43:31.258Z,134.20
2022-12-23T03:47:08.499Z,132.63
2022-12-23T03:50:20.104Z,119.85
2022-12-23T03:53:43.411Z,115.32
2022-12-23T03:57:04.313Z,134.30
2022-12-23T04:00:25.262Z,130.00
2022-12-23T04:03:50.329Z,122.63
2022-12-23T04:07:08.299Z,131.85
2022-12-23T04:10:25.610Z,129.02
2022-12-23T04:13:45.428Z,142.35
2022-12-23T04:17:08.582Z,129.83
2022-12-23T04:20:24.460Z,137.13
2022-12-23T04:23:28.106Z,149.98
2022-12-23T04:26:38.823Z,150.35
2022-12-23T04:29:45.017Z,160.77
2022-12-23T04:32:58.567Z,143.53
2022-12-23T04:36:05.904Z,134.93
2022-12-23T04:39:09.955Z,174.52
2022-12-23T04:42:25.545Z,137.75
2022-12-23T04:45:48.408Z,152.32
2022-12-23T04:49:06.037Z,129.63
2022-12-23T04:52:15.973Z,148.50
2022-12-23T04:55:41.310Z,161.63
2022-12-23T04:59:17.407Z,177.23
2022-12-23T05:02:40.604Z,153.20
2022-12-23T05:05:49.807Z,144.33
2022-12-23T05:09:05.385Z,146.33
2022-12-23T05:12:22.272Z,138.00
2022-12-23T05:15:27.436Z,125.65
2022-12-23T05:18:50.317Z,134.80
2022-12-23T05:22:13.841Z,122.00
2022-12-23T05:25:29.273Z,111.40
2022-12-23T05:28:32.598Z,115.85
2022-12-23T05:31:35.771Z,144.77
2022-12-23T05:34:51.410Z,145.35
2022-12-23T05:38:09.292Z,136.83
2022-12-23T05:41:35.307Z,128.10
2022-12-23T05:44:58.336Z,128.73
2022-12-23T05:48:19.313Z,115.88
2022-12-23T05:51:39.160Z,100.90
2022-12-23T05:54:55.283Z,89.33
2022-12-23T05:58:21.292Z,96.93
2022-12-23T06:01:46.275Z,88.00
2022-12-23T06:04:50.132Z,90.00
2022-12-23T06:07:57.304Z,93.40
2022-12-23T06:11:08.632Z,110.67
2022-12-23T06:14:17.669Z,112.87
2022-12-23T06:17:40.142Z,111.72
2022-12-23T06:21:08.687Z,104.28
2022-12-23T06:24:29.108Z,110.85
2022-12-23T06:27:52.309Z,112.17
2022-12-23T06:31:14.285Z,108.00
2022-12-23T06:34:31.764Z,102.97
2022-12-23T06:37:55.042Z,102.43
2022-12-23T06:41:27.755Z,108.07
2022-12-23T06:44:37.795Z,116.50
2022-12-23T06:48:01.083Z,112.87
2022-12-23T06:51:35.022Z,93.97
2022-12-23T06:54:48.937Z,92.20
2022-12-23T06:57:51.964Z,95.13
2022-12-23T07:00:56.765Z,91.07
2022-12-23T07:04:03.824Z,87.27
2022-12-23T07:07:10.510Z,85.88
2022-12-23T07:10:14.881Z,92.15
2022-12-23T07:13:31.184Z,87.13
2022-12-23T07:16:54.835Z,91.13
2022-12-23T07:20:13.557Z,92.27
2022-12-23T07:23:30.928Z,92.93
2022-12-23T07:27:00.966Z,86.70
2022-12-23T07:30:23.906Z,78.07
2022-12-23T07:33:46.978Z,73.73
2022-12-23T07:36:50.132Z,70.73
2022-12-23T07:39:54.693Z,68.90
2022-12-23T07:43:06.469Z,69.03
2022-12-23T07:46:25.247Z,66.20
2022-12-23T07:49:44.510Z,67.97
2022-12-23T07:53:11.539Z,71.20
2022-12-23T07:56:31.483Z,66.05
2022-12-23T07:59:47.267Z,60.35
2022-12-23T08:03:09.937Z,63.67
2022-12-23T08:06:41.485Z,64.87
2022-12-23T08:09:58.099Z,69.23
2022-12-23T08:13:18.840Z,69.30
2022-12-23T08:16:45.426Z,70.60
2022-12-23T08:20:07.786Z,69.78
2022-12-23T08:23:34.500Z,65.70
2022-12-23T08:26:44.388Z,67.13
2022-12-23T08:29:47.601Z,70.43
2022-12-23T08:32:51.548Z,70.03
2022-12-23T08:35:58.376Z,83.28
2022-12-23T08:39:05.847Z,71.90
2022-12-23T08:42:13.333Z,63.40
2022-12-23T08:45:27.652Z,73.57
2022-12-23T08:48:40.510Z,72.78
2022-12-23T08:51:59.819Z,63.30
2022-12-23T08:55:03.478Z,70.00
2022-12-23T08:58:10.121Z,72.20
2022-12-23T09:01:19.412Z,78.75
2022-12-23T09:04:32.877Z,80.38
2022-12-23T09:07:40.049Z,78.13
2022-12-23T09:10:45.077Z,63.93
2022-12-23T09:14:08.763Z,72.40
2022-12-23T09:17:29.551Z,69.30
2022-12-23T09:20:53.671Z,63.10
2022-12-23T09:24:16.434Z,68.22
2022-12-23T09:27:20.049Z,66.87
2022-12-23T09:30:24.960Z,71.53
2022-12-23T09:33:34.206Z,70.28
2022-12-23T09:36:55.645Z,69.63
2022-12-23T09:40:13.960Z,72.20
2022-12-23T09:43:58.464Z,75.57
2022-12-23T09:47:08.026Z,73.37
2022-12-23T09:50:23.767Z,74.03
2022-12-23T09:53:50.822Z,78.07
2022-12-23T09:58:01.292Z,77.45
2022-12-23T10:02:05.843Z,74.97
2022-12-23T10:05:48.423Z,72.27
2022-12-23T10:09:05.351Z,72.50
2022-12-23T10:12:29.586Z,69.80
2022-12-23T10:15:58.009Z,68.63
2022-12-23T10:19:48.574Z,64.73
2022-12-23T10:23:16.830Z,64.67
2022-12-23T10:26:38.683Z,68.68
2022-12-23T10:30:19.879Z,62.83
2022-12-23T10:34:05.950Z,65.97
2022-12-23T10:37:40.085Z,64.97
2022-12-23T10:41:07.068Z,60.53
2022-12-23T10:44:41.471Z,61.25
2022-12-23T10:48:05.107Z,62.22
2022-12-23T10:51:24.462Z,65.75
2022-12-23T10:54:37.012Z,68.97
2022-12-23T10:57:53.531Z,72.73
2022-12-23T11:01:22.057Z,73.63
2022-12-23T11:04:38.368Z,73.28
2022-12-23T11:07:48.192Z,76.45
2022-12-23T11:11:13.333Z,77.53
2022-12-23T11:14:51.403Z,71.30
2022-12-23T11:18:17.683Z,74.88
2022-12-23T11:21:30.334Z,79.78
2022-12-23T11:24:52.154Z,77.20
2022-12-23T11:28:25.347Z,73.70
2022-12-23T11:31:40.412Z,79.67
2022-12-23T11:35:01.301Z,80.20
2022-12-23T11:38:14.121Z,78.13
2022-12-23T11:41:28.541Z,71.93
2022-12-23T11:44:49.879Z,80.00
2022-12-23T11:48:12.243Z,79.77
2022-12-23T11:51:48.278Z,86.07
2022-12-23T11:55:15.204Z,81.15
2022-12-23T11:58:26.119Z,80.07
2022-12-23T12:01:44.296Z,85.67
2022-12-23T12:05:46.448Z,80.10
2022-12-23T12:08:56.479Z,75.13
2022-12-23T12:12:13.516Z,76.57
2022-12-23T12:15:35.473Z,74.25
2022-12-23T12:18:52.097Z,76.57
2022-12-23T12:22:15.261Z,81.30
2022-12-23T12:25:49.442Z,82.80
2022-12-23T12:29:30.945Z,84.43
2022-12-23T12:32:51.842Z,82.28
2022-12-23T12:36:30.165Z,74.27
2022-12-23T12:39:56.888Z,76.50
2022-12-23T12:43:34.039Z,74.18
2022-12-23T12:46:49.787Z,75.40
2022-12-23T12:50:08.698Z,77.18
2022-12-23T12:53:28.019Z,71.47
2022-12-23T12:56:38.505Z,70.60
2022-12-23T13:00:03.601Z,71.70
2022-12-23T13:03:34.745Z,77.88
2022-12-23T13:07:04.989Z,70.57
2022-12-23T13:10:34.089Z,77.03
2022-12-23T13:13:44.142Z,78.73
2022-12-23T13:17:14.963Z,72.18
2022-12-23T13:21:03.363Z,81.75
2022-12-23T13:24:44.036Z,88.45
2022-12-23T13:28:37.109Z,75.03
2022-12-23T13:32:55.188Z,73.80
2022-12-23T13:36:14.339Z,84.40
2022-12-23T13:39:27.354Z,87.35
2022-12-23T13:42:43.977Z,83.38
2022-12-23T13:45:55.141Z,81.63
2022-12-23T13:49:26.242Z,81.53
2022-12-23T13:52:41.646Z,84.95
2022-12-23T13:56:09.185Z,76.10
2022-12-23T13:59:17.043Z,80.00
2022-12-23T14:02:54.241Z,79.60
2022-12-23T14:05:57.231Z,83.63
2022-12-23T14:09:00.181Z,72.30
2022-12-23T14:12:35.886Z,79.70
2022-12-23T14:16:28.862Z,81.07
2022-12-23T14:19:47.474Z,87.27
2022-12-23T14:23:19.549Z,82.13
2022-12-23T14:26:49.034Z,83.00
2022-12-23T14:30:07.466Z,76.15
2022-12-23T14:33:18.498Z,85.40
2022-12-23T14:36:25.019Z,86.97
2022-12-23T14:39:34.418Z,75.47
2022-12-23T14:42:55.808Z,81.47
2022-12-23T14:46:07.357Z,84.57
2022-12-23T14:49:40.094Z,76.82
2022-12-23T14:53:03.916Z,77.77
2022-12-23T14:56:19.926Z,81.50
2022-12-23T14:59:52.179Z,79.68
2022-12-23T15:03:06.024Z,78.43
2022-12-23T15:06:15.261Z,80.68
2022-12-23T15:09:37.470Z,78.13
2022-12-23T15:12:46.741Z,75.10
2022-12-23T15:16:01.759Z,83.65
2022-12-23T15:19:25.766Z,80.18
2022-12-23T15:22:41.986Z,70.18
2022-12-23T15:25:57.669Z,74.80
2022-12-23T15:29:25.581Z,80.57
2022-12-23T15:32:48.637Z,80.07
2022-12-23T15:36:13.678Z,82.82
2022-12-23T15:39:36.910Z,81.65
2022-12-23T15:42:56.568Z,73.13
2022-12-23T15:46:29.252Z,76.27
2022-12-23T15:49:40.716Z,83.35
2022-12-23T15:52:54.631Z,80.93
2022-12-23T15:55:58.313Z,83.82
2022-12-23T15:59:34.611Z,87.97
2022-12-23T16:03:01.245Z,83.93
2022-12-23T16:06:24.436Z,84.35
2022-12-23T16:09:49.575Z,85.95
2022-12-23T16:13:17.589Z,85.88
2022-12-23T16:16:43.946Z,78.87
2022-12-23T16:20:02.596Z,77.83
2022-12-23T16:23:25.555Z,72.90
2022-12-23T16:26:48.684Z,78.55
2022-12-23T16:30:09.560Z,72.22
2022-12-23T16:33:38.816Z,74.00
2022-12-23T16:36:51.684Z,68.97
2022-12-23T16:40:09.549Z,74.22
2022-12-23T16:43:32.625Z,73.40
2022-12-23T16:46:56.612Z,69.32
2022-12-23T16:50:18.718Z,75.43
2022-12-23T16:53:38.502Z,74.00
2022-12-23T16:56:58.439Z,76.30
2022-12-23T17:00:19.616Z,75.15
2022-12-23T17:03:39.494Z,76.65
2022-12-23T17:06:46.854Z,84.60
2022-12-23T17:09:50.681Z,76.30
2022-12-23T17:13:12.227Z,74.93
2022-12-23T17:16:35.061Z,79.70
2022-12-23T17:19:55.150Z,84.90
2022-12-23T17:23:19.314Z,74.23
2022-12-23T17:26:40.226Z,79.30
2022-12-23T17:30:02.351Z,87.30
2022-12-23T17:33:26.197Z,74.82
2022-12-23T17:36:49.235Z,79.35
2022-12-23T17:39:59.843Z,70.00
2022-12-23T17:43:27.396Z,76.67
2022-12-23T17:46:41.144Z,79.28
2022-12-23T17:49:57.474Z,77.68
2022-12-23T17:53:01.562Z,72.43
2022-12-23T17:56:16.894Z,82.97
2022-12-23T17:59:32.278Z,78.40
2022-12-23T18:02:39.274Z,79.20
2022-12-23T18:05:45.862Z,78.43
2022-12-23T18:08:50.126Z,81.57
2022-12-23T18:12:13.327Z,73.83
2022-12-23T18:15:34.296Z,74.97
2022-12-23T18:18:45.898Z,77.47
2022-12-23T18:21:51.356Z,76.93
2022-12-23T18:24:59.108Z,74.18
2022-12-23T18:28:11.049Z,76.30
2022-12-23T18:31:29.604Z,76.60
2022-12-23T18:34:45.307Z,80.20
2022-12-23T18:38:08.174Z,76.63
2022-12-23T18:41:30.733Z,82.07
2022-12-23T18:44:34.657Z,78.50
2022-12-23T18:47:40.837Z,72.10
2022-12-23T18:50:57.152Z,87.05
2022-12-23T18:54:16.356Z,79.95
2022-12-23T18:57:19.545Z,78.40
2022-12-23T19:00:27.066Z,84.87
2022-12-23T19:03:40.808Z,74.47
2022-12-23T19:07:01.727Z,76.72
2022-12-23T19:10:26.819Z,80.43
2022-12-23T19:13:36.669Z,84.57
2022-12-23T19:16:59.103Z,80.27
2022-12-23T19:20:27.180Z,83.27
2022-12-23T19:23:44.064Z,82.47
2022-12-23T19:27:01.973Z,81.57
2022-12-23T19:30:07.600Z,81.25
2022-12-23T19:33:13.347Z,84.93
2022-12-23T19:36:25.228Z,87.23
2022-12-23T19:39:31.593Z,85.47
2022-12-23T19:42:38.118Z,81.13
2022-12-23T19:46:08.086Z,91.45
2022-12-23T19:49:19.933Z,82.43
2022-12-23T19:52:40.937Z,86.90
2022-12-23T19:56:06.019Z,90.47
2022-12-23T19:59:15.764Z,101.82
2022-12-23T20:02:39.106Z,89.82
2022-12-23T20:05:59.051Z,87.67
2022-12-23T20:09:19.962Z,98.23
2022-12-23T20:12:40.047Z,101.35
2022-12-23T20:16:04.012Z,105.93
2022-12-23T20:19:34.055Z,100.55
2022-12-23T20:22:55.894Z,98.33
2022-12-23T20:26:05.831Z,101.40
2022-12-23T20:29:15.591Z,108.78
2022-12-23T20:32:32.086Z,96.28
2022-12-23T20:35:36.556Z,98.10
2022-12-23T20:38:59.869Z,93.30
2022-12-23T20:42:23.484Z,83.97
2022-12-23T20:45:46.001Z,91.43
2022-12-23T20:48:55.489Z,102.28
2022-12-23T20:51:58.373Z,88.85
2022-12-23T20:55:05.133Z,123.47
2022-12-23T20:58:45.855Z,85.93
2022-12-23T21:01:59.100Z,89.15
2022-12-23T21:05:02.410Z,159.15
2022-12-23T21:08:22.029Z,102.20
2022-12-23T21:11:45.814Z,92.87
2022-12-23T21:15:05.918Z,90.03
2022-12-23T21:18:29.787Z,103.32
2022-12-23T21:21:49.825Z,118.28
2022-12-23T21:25:09.784Z,149.98
2022-12-23T21:28:29.754Z,144.40
2022-12-23T21:31:47.969Z,139.93
2022-12-23T21:34:54.906Z,93.38
2022-12-23T21:38:05.063Z,98.40
2022-12-23T21:41:23.484Z,94.00
2022-12-23T21:44:39.833Z,94.00
2022-12-23T21:47:53.319Z,99.80
2022-12-23T21:51:08.140Z,86.85
2022-12-23T21:54:18.285Z,86.80
2022-12-23T21:57:28.158Z,93.53
2022-12-23T22:00:36.277Z,79.10
2022-12-23T22:03:39.801Z,86.37
2022-12-23T22:06:47.028Z,83.90
2022-12-23T22:10:02.740Z,71.53
2022-12-23T22:13:24.626Z,79.07
2022-12-23T22:16:35.534Z,87.03
2022-12-23T22:19:58.680Z,93.90
2022-12-23T22:23:30.592Z,102.45
2022-12-23T22:26:54.569Z,89.47
2022-12-23T22:30:10.789Z,89.75
2022-12-23T22:33:38.541Z,100.50
2022-12-23T22:37:01.558Z,82.97
2022-12-23T22:40:23.532Z,80.00
2022-12-23T22:43:26.808Z,104.35
2022-12-23T22:46:31.249Z,97.93
2022-12-23T22:49:41.284Z,85.80
2022-12-23T22:53:04.620Z,136.93
2022-12-23T22:56:16.131Z,85.70
2022-12-23T22:59:31.644Z,91.35
2022-12-23T23:02:38.069Z,105.50
2022-12-23T23:05:43.140Z,85.53
2022-12-23T23:09:04.654Z,86.13
2022-12-23T23:12:24.628Z,91.75
2022-12-23T23:15:47.628Z,93.72
2022-12-23T23:19:08.685Z,95.97
2022-12-23T23:22:30.572Z,82.80
2022-12-23T23:25:50.547Z,100.63
2022-12-23T23:29:10.626Z,92.72
2022-12-23T23:32:30.569Z,95.40
2022-12-23T23:35:50.415Z,90.83
2022-12-23T23:39:10.511Z,87.38
2022-12-23T23:42:18.028Z,78.53
2022-12-23T23:45:27.556Z,78.63
2022-12-23T23:48:42.404Z,70.80
2022-12-23T23:52:05.327Z,74.07
2022-12-23T23:55:27.295Z,72.28
2022-12-23T23:58:30.320Z,68.65
